sensor_id;sensor_type;location;lat;lon;timestamp;pressure;altitude;pressure_sealevel;temperature;humidity
3968;BME280;9221;42.646;23.380;2023-02-01T00:01:09;94682.69;;;2.52;77.86
3968;BME280;9221;42.646;23.380;2023-02-01T00:03:35;94604.97;;;2.46;77.94
3968;BME280;9221;42.646;23.380;2023-02-01T00:06:00;94590.81;;;2.37;78.33
3968;BME280;9221;42.646;23.380;2023-02-01T00:08:26;94600.63;;;2.46;78.16
3968;BME280;9221;42.646;23.380;2023-02-01T00:11:06;94551.19;;;2.06;78.16
3968;BME280;9221;42.646;23.380;2023-02-01T00:13:34;94606.31;;;2.39;78.54
3968;BME280;9221;42.646;23.380;2023-02-01T00:16:08;94549.44;;;2.07;78.66
3968;BME280;9221;42.646;23.380;2023-02-01T00:18:33;94590.38;;;2.30;78.49
3968;BME280;9221;42.646;23.380;2023-02-01T00:20:59;94541.31;;;1.98;78.46
3968;BME280;9221;42.646;23.380;2023-02-01T00:23:25;94600.75;;;2.17;78.46
3968;BME280;9221;42.646;23.380;2023-02-01T00:25:50;94551.75;;;1.84;78.53
3968;BME280;9221;42.646;23.380;2023-02-01T00:28:16;94596.28;;;2.19;78.40
3968;BME280;9221;42.646;23.380;2023-02-01T00:30:41;94624.56;;;2.11;78.61
3968;BME280;9221;42.646;23.380;2023-02-01T00:33:46;94594.94;;;2.27;78.00
3968;BME280;9221;42.646;23.380;2023-02-01T00:36:12;94590.97;;;2.21;78.27
3968;BME280;9221;42.646;23.380;2023-02-01T00:38:38;94524.81;;;1.85;77.96
3968;BME280;9221;42.646;23.380;2023-02-01T00:43:34;94627.81;;;2.15;77.61
3968;BME280;9221;42.646;23.380;2023-02-01T00:46:00;94519.84;;;1.95;77.24
3968;BME280;9221;42.646;23.380;2023-02-01T00:48:25;94569.94;;;2.24;76.59
3968;BME280;9221;42.646;23.380;2023-02-01T00:50:51;94601.34;;;2.08;76.03
3968;BME280;9221;42.646;23.380;2023-02-01T00:53:17;94684.38;;;2.11;75.95
3968;BME280;9221;42.646;23.380;2023-02-01T00:55:46;94517.50;;;1.77;75.62
3968;BME280;9221;42.646;23.380;2023-02-01T00:58:12;94571.38;;;2.02;75.58
3968;BME280;9221;42.646;23.380;2023-02-01T01:00:37;94573.78;;;2.06;75.29
3968;BME280;9221;42.646;23.380;2023-02-01T01:03:03;94542.81;;;1.88;75.30
3968;BME280;9221;42.646;23.380;2023-02-01T01:05:43;94531.16;;;1.81;75.04
3968;BME280;9221;42.646;23.380;2023-02-01T01:08:09;94553.09;;;1.62;75.34
3968;BME280;9221;42.646;23.380;2023-02-01T01:10:34;94561.34;;;1.96;74.92
3968;BME280;9221;42.646;23.380;2023-02-01T01:12:59;94609.84;;;1.97;74.50
3968;BME280;9221;42.646;23.380;2023-02-01T01:15:25;94523.78;;;1.60;74.73
3968;BME280;9221;42.646;23.380;2023-02-01T01:17:50;94650.03;;;1.64;74.68
3968;BME280;9221;42.646;23.380;2023-02-01T01:20:16;94516.16;;;1.57;74.53
3968;BME280;9221;42.646;23.380;2023-02-01T01:22:41;94475.69;;;1.40;74.36
3968;BME280;9221;42.646;23.380;2023-02-01T01:25:07;94515.50;;;1.68;74.15
3968;BME280;9221;42.646;23.380;2023-02-01T01:27:32;94567.81;;;2.03;73.58
3968;BME280;9221;42.646;23.380;2023-02-01T01:29:57;94555.44;;;1.94;73.23
3968;BME280;9221;42.646;23.380;2023-02-01T01:32:23;94544.38;;;1.91;73.03
3968;BME280;9221;42.646;23.380;2023-02-01T01:34:48;94477.41;;;1.54;72.47
3968;BME280;9221;42.646;23.380;2023-02-01T01:37:13;94522.81;;;1.76;72.33
3968;BME280;9221;42.646;23.380;2023-02-01T01:39:39;94530.94;;;1.84;72.25
3968;BME280;9221;42.646;23.380;2023-02-01T01:42:04;94572.00;;;2.06;71.93
3968;BME280;9221;42.646;23.380;2023-02-01T01:45:00;94587.13;;;2.14;71.15
3968;BME280;9221;42.646;23.380;2023-02-01T01:47:34;94605.53;;;2.11;71.46
3968;BME280;9221;42.646;23.380;2023-02-01T01:50:02;94582.25;;;2.22;70.95
3968;BME280;9221;42.646;23.380;2023-02-01T01:52:28;94612.19;;;2.15;70.80
3968;BME280;9221;42.646;23.380;2023-02-01T01:54:54;94587.81;;;2.16;70.65
3968;BME280;9221;42.646;23.380;2023-02-01T01:57:30;94540.22;;;1.88;70.41
3968;BME280;9221;42.646;23.380;2023-02-01T02:00:09;94531.50;;;1.89;70.26
3968;BME280;9221;42.646;23.380;2023-02-01T02:02:37;94533.06;;;1.92;70.24
3968;BME280;9221;42.646;23.380;2023-02-01T02:05:04;94539.28;;;1.89;70.50
3968;BME280;9221;42.646;23.380;2023-02-01T02:07:33;94588.03;;;2.13;70.26
3968;BME280;9221;42.646;23.380;2023-02-01T02:10:00;94622.38;;;2.05;70.14
3968;BME280;9221;42.646;23.380;2023-02-01T02:12:27;94589.25;;;1.80;70.64
3968;BME280;9221;42.646;23.380;2023-02-01T02:14:53;94577.75;;;1.84;70.72
3968;BME280;9221;42.646;23.380;2023-02-01T02:17:44;94614.34;;;1.81;71.25
3968;BME280;9221;42.646;23.380;2023-02-01T02:20:27;94611.00;;;1.79;71.29
3968;BME280;9221;42.646;23.380;2023-02-01T02:25:52;94530.69;;;1.47;71.32
3968;BME280;9221;42.646;23.380;2023-02-01T02:28:30;94606.38;;;1.69;71.51
3968;BME280;9221;42.646;23.380;2023-02-01T02:31:22;94522.19;;;1.30;71.62
3968;BME280;9221;42.646;23.380;2023-02-01T02:44:32;94623.47;;;1.45;71.58
3968;BME280;9221;42.646;23.380;2023-02-01T02:47:45;94576.13;;;1.54;71.74
3968;BME280;9221;42.646;23.380;2023-02-01T02:50:49;94605.28;;;1.59;71.92
3968;BME280;9221;42.646;23.380;2023-02-01T02:53:39;94534.63;;;1.40;71.65
3968;BME280;9221;42.646;23.380;2023-02-01T02:56:27;94560.34;;;1.57;71.18
3968;BME280;9221;42.646;23.380;2023-02-01T02:59:15;94578.06;;;1.65;71.29
3968;BME280;9221;42.646;23.380;2023-02-01T03:02:00;94564.25;;;1.64;71.19
3968;BME280;9221;42.646;23.380;2023-02-01T03:04:44;94507.44;;;1.31;71.29
3968;BME280;9221;42.646;23.380;2023-02-01T03:07:15;94568.53;;;1.65;70.99
3968;BME280;9221;42.646;23.380;2023-02-01T03:09:59;94611.97;;;1.63;70.48
3968;BME280;9221;42.646;23.380;2023-02-01T03:12:32;94613.63;;;1.64;69.88
3968;BME280;9221;42.646;23.380;2023-02-01T03:15:18;94529.78;;;1.33;70.01
3968;BME280;9221;42.646;23.380;2023-02-01T03:17:44;94572.41;;;1.58;69.64
3968;BME280;9221;42.646;23.380;2023-02-01T03:20:12;94586.63;;;1.67;68.93
3968;BME280;9221;42.646;23.380;2023-02-01T03:22:41;94640.91;;;1.72;69.15
3968;BME280;9221;42.646;23.380;2023-02-01T03:25:13;94610.63;;;1.71;69.12
3968;BME280;9221;42.646;23.380;2023-02-01T03:27:51;94602.25;;;1.80;68.88
3968;BME280;9221;42.646;23.380;2023-02-01T03:30:27;94605.06;;;1.77;68.89
3968;BME280;9221;42.646;23.380;2023-02-01T03:32:55;94685.66;;;1.77;68.70
3968;BME280;9221;42.646;23.380;2023-02-01T03:43:51;94642.28;;;1.77;69.28
3968;BME280;9221;42.646;23.380;2023-02-01T03:46:22;94590.78;;;1.69;69.39
3968;BME280;9221;42.646;23.380;2023-02-01T03:48:50;94546.19;;;1.48;69.54
3968;BME280;9221;42.646;23.380;2023-02-01T03:51:19;94645.25;;;1.85;69.61
3968;BME280;9221;42.646;23.380;2023-02-01T03:53:47;94597.97;;;1.93;69.29
3968;BME280;9221;42.646;23.380;2023-02-01T03:56:15;94541.03;;;1.61;69.40
3968;BME280;9221;42.646;23.380;2023-02-01T03:58:43;94572.66;;;1.68;68.82
3968;BME280;9221;42.646;23.380;2023-02-01T04:01:23;94544.19;;;1.66;68.98
3968;BME280;9221;42.646;23.380;2023-02-01T04:03:48;94701.59;;;1.99;68.91
3968;BME280;9221;42.646;23.380;2023-02-01T04:06:14;94545.13;;;1.65;69.06
3968;BME280;9221;42.646;23.380;2023-02-01T04:08:40;94513.84;;;1.40;68.99
3968;BME280;9221;42.646;23.380;2023-02-01T04:11:05;94587.09;;;2.01;69.06
3968;BME280;9221;42.646;23.380;2023-02-01T04:13:31;94571.09;;;1.93;69.21
3968;BME280;9221;42.646;23.380;2023-02-01T04:15:56;94542.94;;;1.72;68.89
3968;BME280;9221;42.646;23.380;2023-02-01T04:18:21;94523.59;;;1.63;69.13
3968;BME280;9221;42.646;23.380;2023-02-01T04:20:47;94636.22;;;1.91;69.66
3968;BME280;9221;42.646;23.380;2023-02-01T04:23:12;94535.66;;;1.64;69.81
3968;BME280;9221;42.646;23.380;2023-02-01T04:25:38;94533.59;;;1.69;69.85
3968;BME280;9221;42.646;23.380;2023-02-01T04:28:04;94596.34;;;2.05;69.90
3968;BME280;9221;42.646;23.380;2023-02-01T04:30:29;94601.91;;;1.86;70.29
3968;BME280;9221;42.646;23.380;2023-02-01T04:32:55;94685.59;;;2.06;70.51
3968;BME280;9221;42.646;23.380;2023-02-01T04:35:20;94536.22;;;1.69;70.91
3968;BME280;9221;42.646;23.380;2023-02-01T04:37:47;94639.16;;;1.99;71.04
3968;BME280;9221;42.646;23.380;2023-02-01T04:40:12;94550.28;;;1.80;71.50
3968;BME280;9221;42.646;23.380;2023-02-01T04:42:38;94604.41;;;2.15;71.42
3968;BME280;9221;42.646;23.380;2023-02-01T04:45:04;94594.91;;;2.14;71.12
3968;BME280;9221;42.646;23.380;2023-02-01T04:47:29;94583.25;;;2.07;72.02
3968;BME280;9221;42.646;23.380;2023-02-01T04:49:54;94544.88;;;1.83;71.83
3968;BME280;9221;42.646;23.380;2023-02-01T04:52:20;94554.69;;;1.92;71.96
3968;BME280;9221;42.646;23.380;2023-02-01T04:54:45;94630.09;;;2.19;71.93
3968;BME280;9221;42.646;23.380;2023-02-01T04:57:11;94588.88;;;2.13;72.22
3968;BME280;9221;42.646;23.380;2023-02-01T04:59:39;94590.31;;;2.05;72.43
3968;BME280;9221;42.646;23.380;2023-02-01T05:02:04;94606.75;;;1.63;72.96
3968;BME280;9221;42.646;23.380;2023-02-01T05:04:29;94589.31;;;1.93;73.13
3968;BME280;9221;42.646;23.380;2023-02-01T05:06:55;94587.56;;;1.93;73.55
3968;BME280;9221;42.646;23.380;2023-02-01T05:09:20;94665.94;;;2.01;73.84
3968;BME280;9221;42.646;23.380;2023-02-01T05:11:47;94704.78;;;1.76;74.72
3968;BME280;9221;42.646;23.380;2023-02-01T05:14:30;94556.72;;;1.60;74.80
3968;BME280;9221;42.646;23.380;2023-02-01T05:16:56;94627.63;;;2.03;74.46
3968;BME280;9221;42.646;23.380;2023-02-01T05:19:21;94611.19;;;1.76;74.84
3968;BME280;9221;42.646;23.380;2023-02-01T05:21:46;94637.75;;;2.08;74.73
3968;BME280;9221;42.646;23.380;2023-02-01T05:24:12;94580.47;;;1.68;74.70
3968;BME280;9221;42.646;23.380;2023-02-01T05:26:49;94631.53;;;2.11;74.83
3968;BME280;9221;42.646;23.380;2023-02-01T05:29:15;94580.38;;;1.97;74.46
3968;BME280;9221;42.646;23.380;2023-02-01T05:31:41;94695.09;;;1.92;74.21
3968;BME280;9221;42.646;23.380;2023-02-01T05:34:08;94630.91;;;2.20;74.81
3968;BME280;9221;42.646;23.380;2023-02-01T05:36:34;94597.63;;;1.71;74.63
3968;BME280;9221;42.646;23.380;2023-02-01T05:38:59;94591.09;;;1.92;74.50
3968;BME280;9221;42.646;23.380;2023-02-01T05:41:25;94580.31;;;1.98;74.59
3968;BME280;9221;42.646;23.380;2023-02-01T05:43:50;94577.50;;;2.01;74.71
3968;BME280;9221;42.646;23.380;2023-02-01T05:46:16;94664.03;;;2.18;74.50
3968;BME280;9221;42.646;23.380;2023-02-01T05:48:42;94632.56;;;2.35;74.23
3968;BME280;9221;42.646;23.380;2023-02-01T05:51:08;94616.03;;;2.36;74.07
3968;BME280;9221;42.646;23.380;2023-02-01T05:53:34;94671.38;;;2.39;74.22
3968;BME280;9221;42.646;23.380;2023-02-01T05:56:00;94599.31;;;2.26;73.85
3968;BME280;9221;42.646;23.380;2023-02-01T05:58:26;94632.31;;;2.53;73.41
3968;BME280;9221;42.646;23.380;2023-02-01T06:00:51;94620.41;;;2.49;73.22
3968;BME280;9221;42.646;23.380;2023-02-01T06:03:16;94635.22;;;2.61;73.24
3968;BME280;9221;42.646;23.380;2023-02-01T06:05:46;94643.56;;;2.66;72.94
3968;BME280;9221;42.646;23.380;2023-02-01T06:08:12;94588.13;;;2.39;72.60
3968;BME280;9221;42.646;23.380;2023-02-01T06:10:37;94647.22;;;2.64;72.38
3968;BME280;9221;42.646;23.380;2023-02-01T06:13:03;94644.50;;;2.65;71.80
3968;BME280;9221;42.646;23.380;2023-02-01T06:15:29;94688.34;;;2.71;71.99
3968;BME280;9221;42.646;23.380;2023-02-01T06:17:55;94688.56;;;2.68;71.39
3968;BME280;9221;42.646;23.380;2023-02-01T06:20:20;94665.03;;;2.70;71.41
3968;BME280;9221;42.646;23.380;2023-02-01T06:22:46;94648.38;;;2.73;71.46
3968;BME280;9221;42.646;23.380;2023-02-01T06:25:11;94635.50;;;2.44;71.25
3968;BME280;9221;42.646;23.380;2023-02-01T06:27:37;94597.94;;;2.48;71.09
3968;BME280;9221;42.646;23.380;2023-02-01T06:30:04;94645.16;;;2.82;70.61
3968;BME280;9221;42.646;23.380;2023-02-01T06:32:30;94557.50;;;2.29;70.07
3968;BME280;9221;42.646;23.380;2023-02-01T06:34:55;94650.66;;;2.77;70.30
3968;BME280;9221;42.646;23.380;2023-02-01T06:37:22;94678.38;;;2.91;70.28
3968;BME280;9221;42.646;23.380;2023-02-01T06:39:50;94662.38;;;2.97;69.38
3968;BME280;9221;42.646;23.380;2023-02-01T06:42:15;94648.59;;;2.95;69.75
3968;BME280;9221;42.646;23.380;2023-02-01T06:44:40;94767.16;;;2.88;69.59
3968;BME280;9221;42.646;23.380;2023-02-01T06:47:06;94671.09;;;2.96;69.48
3968;BME280;9221;42.646;23.380;2023-02-01T06:49:31;94752.59;;;2.98;68.95
3968;BME280;9221;42.646;23.380;2023-02-01T06:51:57;94718.44;;;3.03;68.89
3968;BME280;9221;42.646;23.380;2023-02-01T06:54:25;94655.41;;;3.11;68.92
3968;BME280;9221;42.646;23.380;2023-02-01T06:56:51;94662.78;;;3.17;68.33
3968;BME280;9221;42.646;23.380;2023-02-01T06:59:16;94672.81;;;3.23;68.40
3968;BME280;9221;42.646;23.380;2023-02-01T07:01:41;94663.31;;;3.22;68.27
3968;BME280;9221;42.646;23.380;2023-02-01T07:04:10;94690.72;;;3.15;68.08
3968;BME280;9221;42.646;23.380;2023-02-01T07:06:35;94664.69;;;3.15;67.44
3968;BME280;9221;42.646;23.380;2023-02-01T07:09:00;94661.81;;;2.92;67.82
3968;BME280;9221;42.646;23.380;2023-02-01T07:11:26;94664.25;;;3.08;67.40
3968;BME280;9221;42.646;23.380;2023-02-01T07:13:53;94728.25;;;3.25;67.76
3968;BME280;9221;42.646;23.380;2023-02-01T07:16:19;94633.50;;;3.00;67.63
3968;BME280;9221;42.646;23.380;2023-02-01T07:18:45;94639.84;;;2.96;67.31
3968;BME280;9221;42.646;23.380;2023-02-01T07:21:11;94631.50;;;2.91;67.33
3968;BME280;9221;42.646;23.380;2023-02-01T07:23:37;94723.25;;;3.22;67.08
3968;BME280;9221;42.646;23.380;2023-02-01T07:26:05;94645.47;;;2.90;67.18
3968;BME280;9221;42.646;23.380;2023-02-01T07:28:33;94683.59;;;2.91;67.38
3968;BME280;9221;42.646;23.380;2023-02-01T07:31:10;94721.91;;;3.29;67.24
3968;BME280;9221;42.646;23.380;2023-02-01T07:33:36;94709.28;;;3.36;66.97
3968;BME280;9221;42.646;23.380;2023-02-01T07:36:04;94740.56;;;3.36;66.81
3968;BME280;9221;42.646;23.380;2023-02-01T07:38:30;94760.00;;;3.45;67.18
3968;BME280;9221;42.646;23.380;2023-02-01T07:40:59;94743.00;;;3.52;66.70
3968;BME280;9221;42.646;23.380;2023-02-01T07:43:26;94700.75;;;3.47;66.43
3968;BME280;9221;42.646;23.380;2023-02-01T07:45:52;94750.81;;;3.52;66.66
3968;BME280;9221;42.646;23.380;2023-02-01T07:48:18;94716.59;;;3.56;65.92
3968;BME280;9221;42.646;23.380;2023-02-01T07:50:44;94720.56;;;3.62;65.68
3968;BME280;9221;42.646;23.380;2023-02-01T07:53:09;94705.03;;;3.48;65.26
3968;BME280;9221;42.646;23.380;2023-02-01T07:55:37;94713.50;;;3.51;65.72
3968;BME280;9221;42.646;23.380;2023-02-01T07:58:03;94715.34;;;3.49;65.36
3968;BME280;9221;42.646;23.380;2023-02-01T08:00:28;94693.22;;;3.29;65.40
3968;BME280;9221;42.646;23.380;2023-02-01T08:03:12;94778.75;;;3.50;65.16
3968;BME280;9221;42.646;23.380;2023-02-01T08:05:37;94723.38;;;3.46;65.26
3968;BME280;9221;42.646;23.380;2023-02-01T08:08:03;94701.38;;;3.37;64.94
3968;BME280;9221;42.646;23.380;2023-02-01T08:10:29;94740.38;;;3.65;64.86
3968;BME280;9221;42.646;23.380;2023-02-01T08:12:58;94693.34;;;3.41;65.32
3968;BME280;9221;42.646;23.380;2023-02-01T08:15:24;94719.22;;;3.69;64.52
3968;BME280;9221;42.646;23.380;2023-02-01T08:17:50;94685.09;;;3.47;64.24
3968;BME280;9221;42.646;23.380;2023-02-01T08:20:17;94740.69;;;3.86;64.57
3968;BME280;9221;42.646;23.380;2023-02-01T08:22:42;94651.44;;;3.18;63.95
3968;BME280;9221;42.646;23.380;2023-02-01T08:25:08;94723.03;;;3.89;64.38
3968;BME280;9221;42.646;23.380;2023-02-01T08:27:34;94711.88;;;3.87;63.28
3968;BME280;9221;42.646;23.380;2023-02-01T08:29:59;94669.88;;;3.66;62.84
3968;BME280;9221;42.646;23.380;2023-02-01T08:32:26;94740.56;;;4.00;63.08
3968;BME280;9221;42.646;23.380;2023-02-01T08:34:51;94725.31;;;4.07;63.09
3968;BME280;9221;42.646;23.380;2023-02-01T08:37:17;94722.81;;;4.05;62.29
3968;BME280;9221;42.646;23.380;2023-02-01T08:39:42;94705.91;;;3.98;62.33
3968;BME280;9221;42.646;23.380;2023-02-01T08:42:12;94761.31;;;4.15;62.65
3968;BME280;9221;42.646;23.380;2023-02-01T08:44:57;94742.19;;;4.27;62.15
3968;BME280;9221;42.646;23.380;2023-02-01T08:47:23;94685.84;;;4.12;62.50
3968;BME280;9221;42.646;23.380;2023-02-01T08:49:48;94726.31;;;4.30;62.07
3968;BME280;9221;42.646;23.380;2023-02-01T08:52:14;94682.44;;;4.35;61.00
3968;BME280;9221;42.646;23.380;2023-02-01T08:54:39;94703.47;;;4.58;60.93
3968;BME280;9221;42.646;23.380;2023-02-01T08:57:06;94729.38;;;5.32;60.30
3968;BME280;9221;42.646;23.380;2023-02-01T08:59:31;94687.34;;;5.58;57.88
3968;BME280;9221;42.646;23.380;2023-02-01T09:01:57;94701.06;;;6.73;55.48
3968;BME280;9221;42.646;23.380;2023-02-01T09:04:22;94728.97;;;7.70;53.49
3968;BME280;9221;42.646;23.380;2023-02-01T09:06:48;94747.53;;;8.00;51.57
3968;BME280;9221;42.646;23.380;2023-02-01T09:09:13;94677.06;;;7.74;51.41
3968;BME280;9221;42.646;23.380;2023-02-01T09:11:39;94725.41;;;8.02;51.13
3968;BME280;9221;42.646;23.380;2023-02-01T09:14:04;94607.75;;;7.55;50.61
3968;BME280;9221;42.646;23.380;2023-02-01T09:16:29;94675.63;;;7.18;51.56
3968;BME280;9221;42.646;23.380;2023-02-01T09:18:55;94734.44;;;6.60;53.02
3968;BME280;9221;42.646;23.380;2023-02-01T09:21:20;94787.69;;;6.38;54.41
3968;BME280;9221;42.646;23.380;2023-02-01T09:23:46;94766.59;;;5.94;55.71
3968;BME280;9221;42.646;23.380;2023-02-01T09:26:13;94710.66;;;5.50;56.85
3968;BME280;9221;42.646;23.380;2023-02-01T09:28:39;94723.00;;;5.48;57.42
3968;BME280;9221;42.646;23.380;2023-02-01T09:31:04;94740.88;;;5.65;57.68
3968;BME280;9221;42.646;23.380;2023-02-01T09:33:30;94741.75;;;6.00;57.15
3968;BME280;9221;42.646;23.380;2023-02-01T09:36:00;94725.69;;;6.27;56.79
3968;BME280;9221;42.646;23.380;2023-02-01T09:38:25;94671.28;;;6.74;54.27
3968;BME280;9221;42.646;23.380;2023-02-01T09:40:53;94705.56;;;7.57;52.90
3968;BME280;9221;42.646;23.380;2023-02-01T09:46:03;94720.38;;;8.61;49.57
3968;BME280;9221;42.646;23.380;2023-02-01T09:48:35;94715.75;;;8.94;49.79
3968;BME280;9221;42.646;23.380;2023-02-01T09:51:05;94646.22;;;9.36;47.51
3968;BME280;9221;42.646;23.380;2023-02-01T09:53:40;94748.13;;;10.68;45.15
3968;BME280;9221;42.646;23.380;2023-02-01T09:56:42;94706.50;;;11.07;44.05
3968;BME280;9221;42.646;23.380;2023-02-01T10:01:40;94658.78;;;9.99;44.39
3968;BME280;9221;42.646;23.380;2023-02-01T10:04:11;94695.75;;;9.70;45.81
3968;BME280;9221;42.646;23.380;2023-02-01T10:28:16;94662.88;;;10.49;43.30
3968;BME280;9221;42.646;23.380;2023-02-01T10:30:47;94673.22;;;9.95;43.39
3968;BME280;9221;42.646;23.380;2023-02-01T10:35:45;94661.44;;;8.54;46.65
3968;BME280;9221;42.646;23.380;2023-02-01T10:38:40;94646.41;;;7.84;48.37
3968;BME280;9221;42.646;23.380;2023-02-01T10:41:21;94643.00;;;7.62;49.53
3968;BME280;9221;42.646;23.380;2023-02-01T10:43:54;94679.25;;;7.48;49.98
3968;BME280;9221;42.646;23.380;2023-02-01T10:46:25;94638.66;;;7.52;50.33
3968;BME280;9221;42.646;23.380;2023-02-01T10:48:53;94589.22;;;6.95;49.96
3968;BME280;9221;42.646;23.380;2023-02-01T10:54:01;94650.53;;;6.83;51.75
3968;BME280;9221;42.646;23.380;2023-02-01T10:56:29;94642.56;;;7.05;51.23
3968;BME280;9221;42.646;23.380;2023-02-01T10:59:06;94589.09;;;6.75;51.90
3968;BME280;9221;42.646;23.380;2023-02-01T11:01:37;94589.84;;;6.66;51.11
3968;BME280;9221;42.646;23.380;2023-02-01T11:04:24;94584.94;;;6.40;51.74
3968;BME280;9221;42.646;23.380;2023-02-01T11:07:04;94673.28;;;6.50;51.98
3968;BME280;9221;42.646;23.380;2023-02-01T11:09:34;94637.50;;;6.28;52.16
3968;BME280;9221;42.646;23.380;2023-02-01T11:12:03;94689.28;;;6.01;52.26
3968;BME280;9221;42.646;23.380;2023-02-01T11:14:37;94590.03;;;6.09;52.90
3968;BME280;9221;42.646;23.380;2023-02-01T11:17:43;94648.66;;;6.73;52.03
3968;BME280;9221;42.646;23.380;2023-02-01T11:22:46;94632.56;;;6.78;51.45
3968;BME280;9221;42.646;23.380;2023-02-01T11:25:14;94591.13;;;6.51;51.20
3968;BME280;9221;42.646;23.380;2023-02-01T11:27:40;94622.97;;;6.67;51.60
3968;BME280;9221;42.646;23.380;2023-02-01T11:30:07;94614.47;;;6.42;52.31
3968;BME280;9221;42.646;23.380;2023-02-01T11:32:33;94601.47;;;6.41;52.63
3968;BME280;9221;42.646;23.380;2023-02-01T11:35:04;94605.28;;;6.48;52.71
3968;BME280;9221;42.646;23.380;2023-02-01T11:37:38;94569.50;;;6.26;53.01
3968;BME280;9221;42.646;23.380;2023-02-01T11:42:58;94560.38;;;6.20;52.42
3968;BME280;9221;42.646;23.380;2023-02-01T11:45:27;94671.34;;;6.52;52.60
3968;BME280;9221;42.646;23.380;2023-02-01T11:47:54;94461.44;;;5.59;52.88
3968;BME280;9221;42.646;23.380;2023-02-01T11:50:36;94560.75;;;6.16;52.53
3968;BME280;9221;42.646;23.380;2023-02-01T11:53:22;94592.66;;;6.09;53.15
3968;BME280;9221;42.646;23.380;2023-02-01T11:56:08;94543.16;;;6.06;53.01
3968;BME280;9221;42.646;23.380;2023-02-01T12:06:45;94584.22;;;6.50;52.46
3968;BME280;9221;42.646;23.380;2023-02-01T12:09:20;94578.72;;;6.53;53.06
3968;BME280;9221;42.646;23.380;2023-02-01T12:17:25;94564.59;;;6.65;52.84
3968;BME280;9221;42.646;23.380;2023-02-01T12:41:55;94510.63;;;6.20;52.84
3968;BME280;9221;42.646;23.380;2023-02-01T12:44:46;94618.81;;;6.65;53.67
3968;BME280;9221;42.646;23.380;2023-02-01T12:52:48;94608.47;;;6.52;53.08
3968;BME280;9221;42.646;23.380;2023-02-01T12:58:20;94582.56;;;6.91;52.27
3968;BME280;9221;42.646;23.380;2023-02-01T13:00:54;94662.28;;;6.88;52.27
3968;BME280;9221;42.646;23.380;2023-02-01T13:06:30;94621.59;;;7.05;52.22
3968;BME280;9221;42.646;23.380;2023-02-01T13:09:03;94572.00;;;7.02;51.34
3968;BME280;9221;42.646;23.380;2023-02-01T13:11:36;94557.00;;;6.83;51.58
3968;BME280;9221;42.646;23.380;2023-02-01T13:16:52;94582.97;;;6.86;50.93
3968;BME280;9221;42.646;23.380;2023-02-01T13:21:59;94561.88;;;6.88;50.73
3968;BME280;9221;42.646;23.380;2023-02-01T13:24:46;94571.25;;;6.90;50.01
3968;BME280;9221;42.646;23.380;2023-02-01T13:27:13;94574.06;;;6.99;50.16
3968;BME280;9221;42.646;23.380;2023-02-01T13:30:05;94584.78;;;7.17;49.89
3968;BME280;9221;42.646;23.380;2023-02-01T13:41:07;94520.31;;;6.62;49.61
3968;BME280;9221;42.646;23.380;2023-02-01T13:43:40;94547.03;;;6.77;48.36
3968;BME280;9221;42.646;23.380;2023-02-01T13:46:10;94580.66;;;6.93;49.27
3968;BME280;9221;42.646;23.380;2023-02-01T13:49:00;94571.81;;;6.94;48.91
3968;BME280;9221;42.646;23.380;2023-02-01T13:51:35;94542.75;;;6.76;48.42
3968;BME280;9221;42.646;23.380;2023-02-01T13:54:01;94564.72;;;7.06;48.63
3968;BME280;9221;42.646;23.380;2023-02-01T13:56:39;94478.13;;;6.23;49.43
3968;BME280;9221;42.646;23.380;2023-02-01T14:03:07;94564.00;;;7.25;48.33
3968;BME280;9221;42.646;23.380;2023-02-01T14:13:22;94562.59;;;7.21;48.94
3968;BME280;9221;42.646;23.380;2023-02-01T14:26:40;94565.31;;;7.09;49.69
3968;BME280;9221;42.646;23.380;2023-02-01T14:31:41;94530.31;;;6.99;49.39
3968;BME280;9221;42.646;23.380;2023-02-01T14:34:37;94555.06;;;7.06;49.72
3968;BME280;9221;42.646;23.380;2023-02-01T14:37:03;94568.50;;;6.92;49.84
3968;BME280;9221;42.646;23.380;2023-02-01T14:39:34;94560.38;;;6.95;50.21
3968;BME280;9221;42.646;23.380;2023-02-01T14:55:59;94560.91;;;6.68;50.97
3968;BME280;9221;42.646;23.380;2023-02-01T14:58:49;94486.94;;;6.22;52.05
3968;BME280;9221;42.646;23.380;2023-02-01T15:06:32;94504.31;;;6.23;52.82
3968;BME280;9221;42.646;23.380;2023-02-01T15:11:28;94566.34;;;6.43;53.24
3968;BME280;9221;42.646;23.380;2023-02-01T15:35:05;94561.72;;;6.47;52.03
3968;BME280;9221;42.646;23.380;2023-02-01T15:37:31;94544.91;;;6.17;51.98
3968;BME280;9221;42.646;23.380;2023-02-01T15:42:54;94536.09;;;6.51;51.49
3968;BME280;9221;42.646;23.380;2023-02-01T15:45:25;94486.69;;;6.25;51.19
3968;BME280;9221;42.646;23.380;2023-02-01T15:47:53;94538.72;;;6.51;51.29
3968;BME280;9221;42.646;23.380;2023-02-01T15:50:20;94543.97;;;6.51;51.43
3968;BME280;9221;42.646;23.380;2023-02-01T15:52:51;94543.03;;;6.40;50.73
3968;BME280;9221;42.646;23.380;2023-02-01T15:55:20;94491.91;;;5.92;51.34
3968;BME280;9221;42.646;23.380;2023-02-01T15:57:48;94577.81;;;6.42;51.13
3968;BME280;9221;42.646;23.380;2023-02-01T16:00:47;94554.75;;;6.57;50.42
3968;BME280;9221;42.646;23.380;2023-02-01T16:03:39;94592.75;;;6.52;50.25
3968;BME280;9221;42.646;23.380;2023-02-01T16:06:28;94561.31;;;6.52;51.08
3968;BME280;9221;42.646;23.380;2023-02-01T16:09:08;94551.03;;;6.39;50.79
3968;BME280;9221;42.646;23.380;2023-02-01T16:11:47;94555.19;;;6.41;50.90
3968;BME280;9221;42.646;23.380;2023-02-01T16:14:13;94566.34;;;6.43;51.08
3968;BME280;9221;42.646;23.380;2023-02-01T16:16:39;94584.63;;;6.34;51.30
3968;BME280;9221;42.646;23.380;2023-02-01T16:19:04;94586.41;;;6.33;51.47
3968;BME280;9221;42.646;23.380;2023-02-01T16:21:30;94511.53;;;5.98;51.33
3968;BME280;9221;42.646;23.380;2023-02-01T16:23:55;94464.28;;;5.67;51.36
3968;BME280;9221;42.646;23.380;2023-02-01T16:26:20;94569.97;;;6.31;51.42
3968;BME280;9221;42.646;23.380;2023-02-01T16:28:46;94512.41;;;5.99;52.24
3968;BME280;9221;42.646;23.380;2023-02-01T16:31:14;94575.47;;;6.28;52.00
3968;BME280;9221;42.646;23.380;2023-02-01T16:33:54;94581.88;;;6.35;51.63
3968;BME280;9221;42.646;23.380;2023-02-01T16:36:20;94472.13;;;5.67;52.09
3968;BME280;9221;42.646;23.380;2023-02-01T16:38:46;94612.72;;;6.32;51.97
3968;BME280;9221;42.646;23.380;2023-02-01T16:41:16;94506.59;;;5.84;51.97
3968;BME280;9221;42.646;23.380;2023-02-01T16:43:42;94516.19;;;5.83;51.90
3968;BME280;9221;42.646;23.380;2023-02-01T16:46:13;94591.91;;;6.30;52.75
3968;BME280;9221;42.646;23.380;2023-02-01T16:48:40;94572.66;;;6.20;52.32
3968;BME280;9221;42.646;23.380;2023-02-01T16:51:12;94629.38;;;6.31;52.80